createdAt,value
2022-12-08T00:01:45.793Z,99.90
2022-12-08T00:04:12.830Z,99.90
2022-12-08T00:07:00.327Z,99.90
2022-12-08T00:09:34.740Z,99.90
2022-12-08T00:12:10.783Z,99.90
2022-12-08T00:14:39.802Z,99.90
2022-12-08T00:17:10.057Z,99.90
2022-12-08T00:19:39.265Z,99.90
2022-12-08T00:22:07.800Z,99.90
2022-12-08T00:24:38.428Z,99.90
2022-12-08T00:27:12.498Z,99.90
2022-12-08T00:29:39.473Z,99.90
2022-12-08T00:32:07.056Z,99.90
2022-12-08T00:34:34.462Z,99.90
2022-12-08T00:37:23.684Z,99.90
2022-12-08T00:39:50.710Z,99.90
2022-12-08T00:42:17.537Z,99.90
2022-12-08T00:44:46.138Z,99.90
2022-12-08T00:47:14.679Z,99.90
2022-12-08T00:49:41.643Z,99.90
2022-12-08T00:52:09.957Z,99.90
2022-12-08T00:54:37.301Z,99.90
2022-12-08T00:57:04.350Z,99.90
2022-12-08T00:59:31.300Z,99.90
2022-12-08T01:01:58.314Z,99.90
2022-12-08T01:04:25.138Z,99.90
2022-12-08T01:06:52.950Z,99.90
2022-12-08T01:09:19.824Z,99.90
2022-12-08T01:11:47.380Z,99.90
2022-12-08T01:14:14.893Z,99.90
2022-12-08T01:16:41.984Z,99.90
2022-12-08T01:19:13.895Z,99.90
2022-12-08T01:21:41.952Z,99.90
2022-12-08T01:24:15.525Z,99.90
2022-12-08T01:26:43.606Z,99.90
2022-12-08T01:29:11.369Z,99.90
2022-12-08T01:31:38.843Z,99.90
2022-12-08T01:34:06.085Z,99.90
2022-12-08T01:36:37.130Z,99.90
2022-12-08T01:39:06.273Z,99.90
2022-12-08T01:41:35.658Z,99.90
2022-12-08T01:44:08.770Z,99.90
2022-12-08T01:46:38.616Z,99.90
2022-12-08T01:49:10.998Z,99.90
2022-12-08T01:51:56.762Z,99.90
2022-12-08T01:54:29.097Z,99.90
2022-12-08T01:57:03.631Z,99.90
2022-12-08T01:59:33.057Z,99.90
2022-12-08T02:01:59.966Z,99.90
2022-12-08T02:04:26.837Z,99.90
2022-12-08T02:07:01.453Z,99.90
2022-12-08T02:09:31.882Z,99.90
2022-12-08T02:12:00.109Z,99.90
2022-12-08T02:14:27.368Z,99.90
2022-12-08T02:17:12.169Z,99.90
2022-12-08T02:20:43.932Z,99.90
2022-12-08T02:23:19.224Z,99.90
2022-12-08T02:25:48.820Z,99.90
2022-12-08T02:28:35.185Z,99.90
2022-12-08T02:31:02.147Z,99.90
2022-12-08T02:33:40.881Z,99.90
2022-12-08T02:36:22.309Z,99.90
2022-12-08T02:39:11.066Z,99.90
2022-12-08T02:42:01.773Z,99.90
2022-12-08T02:44:35.575Z,99.90
2022-12-08T02:47:12.963Z,99.90
2022-12-08T02:49:39.854Z,99.90
2022-12-08T02:52:12.874Z,99.90
2022-12-08T02:54:45.932Z,99.90
2022-12-08T02:57:38.828Z,99.90
2022-12-08T03:00:13.420Z,99.90
2022-12-08T03:03:11.982Z,99.90
2022-12-08T03:06:00.147Z,99.90
2022-12-08T03:08:38.712Z,99.90
2022-12-08T03:11:14.881Z,99.90
2022-12-08T03:13:48.450Z,99.90
2022-12-08T03:16:17.655Z,99.90
2022-12-08T03:18:52.842Z,99.90
2022-12-08T03:21:22.062Z,99.90
2022-12-08T03:23:52.420Z,99.90
2022-12-08T03:26:46.675Z,99.90
2022-12-08T03:29:14.038Z,99.90
2022-12-08T03:31:47.517Z,99.90
2022-12-08T03:34:15.261Z,99.90
2022-12-08T03:36:45.208Z,99.90
2022-12-08T03:39:12.277Z,99.90
2022-12-08T03:41:39.136Z,99.90
2022-12-08T03:44:06.020Z,99.90
2022-12-08T03:46:32.838Z,99.90
2022-12-08T03:49:20.809Z,99.90
2022-12-08T03:51:47.762Z,99.90
2022-12-08T03:54:14.614Z,99.90
2022-12-08T03:56:41.463Z,99.90
2022-12-08T03:59:09.047Z,99.90
2022-12-08T04:01:36.260Z,99.90
2022-12-08T04:04:03.342Z,99.90
2022-12-08T04:06:30.347Z,99.90
2022-12-08T04:09:00.560Z,99.90
2022-12-08T04:11:27.435Z,99.90
2022-12-08T04:13:54.285Z,99.90
2022-12-08T04:16:24.588Z,99.90
2022-12-08T04:18:52.880Z,99.90
2022-12-08T04:21:20.313Z,99.90
2022-12-08T04:23:47.587Z,99.90
2022-12-08T04:26:14.900Z,99.90
2022-12-08T04:29:02.942Z,99.90
2022-12-08T04:31:30.288Z,99.90
2022-12-08T04:33:57.880Z,99.90
2022-12-08T04:36:24.878Z,99.90
2022-12-08T04:39:29.499Z,99.90
2022-12-08T04:41:56.499Z,99.90
2022-12-08T04:44:23.397Z,99.90
2022-12-08T04:46:50.319Z,99.90
2022-12-08T04:49:17.187Z,99.90
2022-12-08T04:51:44.081Z,99.90
2022-12-08T04:54:11.027Z,99.90
2022-12-08T04:56:37.902Z,99.90
2022-12-08T04:59:04.777Z,99.90
2022-12-08T05:01:31.751Z,99.90
2022-12-08T05:03:58.828Z,99.90
2022-12-08T05:06:25.712Z,99.90
2022-12-08T05:08:52.747Z,99.90
2022-12-08T05:11:19.765Z,99.90
2022-12-08T05:13:47.298Z,99.90
2022-12-08T05:16:15.851Z,99.90
2022-12-08T05:18:44.229Z,99.90
2022-12-08T05:21:11.256Z,99.90
2022-12-08T05:23:38.108Z,99.90
2022-12-08T05:26:05.216Z,99.90
2022-12-08T05:28:52.098Z,99.90
2022-12-08T05:31:19.133Z,99.90
2022-12-08T05:33:46.723Z,99.90
2022-12-08T05:36:15.537Z,99.90
2022-12-08T05:38:43.733Z,99.90
2022-12-08T05:41:15.198Z,99.90
2022-12-08T05:43:42.185Z,99.90
2022-12-08T05:46:09.751Z,99.90
2022-12-08T05:48:37.408Z,99.90
2022-12-08T05:51:04.662Z,99.90
2022-12-08T05:53:31.571Z,99.90
2022-12-08T05:55:58.437Z,99.90
2022-12-08T05:58:26.555Z,99.90
2022-12-08T06:00:53.395Z,99.90
2022-12-08T06:03:20.325Z,99.90
2022-12-08T06:05:47.847Z,99.90
2022-12-08T06:08:17.396Z,99.90
2022-12-08T06:10:45.448Z,99.90
2022-12-08T06:13:13.206Z,99.90
2022-12-08T06:15:41.149Z,99.90
2022-12-08T06:18:11.786Z,99.90
2022-12-08T06:20:38.630Z,99.90
2022-12-08T06:23:05.554Z,99.90
2022-12-08T06:25:32.433Z,99.90
2022-12-08T06:28:38.069Z,99.90
2022-12-08T06:31:18.115Z,99.90
2022-12-08T06:33:45.469Z,99.90
2022-12-08T06:36:14.505Z,99.90
2022-12-08T06:38:43.983Z,99.90
2022-12-08T06:41:12.064Z,99.90
2022-12-08T06:43:39.610Z,99.90
2022-12-08T06:46:09.296Z,99.90
2022-12-08T06:48:36.548Z,99.90
2022-12-08T06:51:12.165Z,99.90
2022-12-08T06:53:40.528Z,99.90
2022-12-08T06:56:08.016Z,99.90
2022-12-08T06:58:35.533Z,99.90
2022-12-08T07:01:11.322Z,99.90
2022-12-08T07:03:39.188Z,99.90
2022-12-08T07:06:07.166Z,99.90
2022-12-08T07:08:35.182Z,99.90
2022-12-08T07:11:10.325Z,99.90
2022-12-08T07:13:37.445Z,99.90
2022-12-08T07:16:08.970Z,99.90
2022-12-08T07:18:37.748Z,99.90
2022-12-08T07:21:10.659Z,99.90
2022-12-08T07:23:38.136Z,99.90
2022-12-08T07:26:08.370Z,99.90
2022-12-08T07:28:37.441Z,99.90
2022-12-08T07:31:05.341Z,99.90
2022-12-08T07:33:33.631Z,99.90
2022-12-08T07:36:02.974Z,99.90
2022-12-08T07:38:31.815Z,99.90
2022-12-08T07:40:58.838Z,99.90
2022-12-08T07:43:25.946Z,99.90
2022-12-08T07:45:52.959Z,99.90
2022-12-08T07:48:20.417Z,99.90
2022-12-08T07:50:47.703Z,99.90
2022-12-08T07:53:14.752Z,99.90
2022-12-08T07:55:43.048Z,99.90
2022-12-08T07:58:11.757Z,99.90
2022-12-08T08:00:38.730Z,99.90
2022-12-08T08:03:06.282Z,99.90
2022-12-08T08:05:33.261Z,99.90
2022-12-08T08:08:00.296Z,99.90
2022-12-08T08:10:27.429Z,99.90
2022-12-08T08:12:54.439Z,99.90
2022-12-08T08:15:21.513Z,99.90
2022-12-08T08:17:53.166Z,99.90
2022-12-08T08:20:21.011Z,99.90
2022-12-08T08:22:49.424Z,99.90
2022-12-08T08:25:17.238Z,99.90
2022-12-08T08:27:46.570Z,99.90
2022-12-08T08:30:19.977Z,99.90
2022-12-08T08:32:49.279Z,99.90
2022-12-08T08:35:16.634Z,99.90
2022-12-08T08:37:48.624Z,99.90
2022-12-08T08:40:17.030Z,99.90
2022-12-08T08:42:43.937Z,99.90
2022-12-08T08:45:11.364Z,99.90
2022-12-08T08:47:38.478Z,99.90
2022-12-08T08:50:06.218Z,99.90
2022-12-08T08:52:33.426Z,99.90
2022-12-08T08:55:00.304Z,99.90
2022-12-08T08:57:27.705Z,99.90
2022-12-08T08:59:54.935Z,99.90
2022-12-08T09:02:22.544Z,99.90
2022-12-08T09:04:53.466Z,99.90
2022-12-08T09:07:21.556Z,99.90
2022-12-08T09:09:48.427Z,99.90
2022-12-08T09:12:16.043Z,99.90
2022-12-08T09:14:42.914Z,99.90
2022-12-08T09:17:15.018Z,99.90
2022-12-08T09:19:41.980Z,99.90
2022-12-08T09:22:08.857Z,99.90
2022-12-08T09:24:35.761Z,99.90
2022-12-08T09:27:02.850Z,99.90
2022-12-08T09:29:35.612Z,99.90
2022-12-08T09:32:03.436Z,99.90
2022-12-08T09:34:31.896Z,99.90
2022-12-08T09:37:03.388Z,99.90
2022-12-08T09:39:30.889Z,99.90
2022-12-08T09:42:07.608Z,99.90
2022-12-08T09:44:50.226Z,99.90
2022-12-08T09:47:39.862Z,99.90
2022-12-08T09:50:21.970Z,99.90
2022-12-08T09:53:02.537Z,99.90
2022-12-08T09:55:41.256Z,99.90
2022-12-08T09:58:52.685Z,99.90
2022-12-08T10:01:22.804Z,99.90
2022-12-08T10:03:50.256Z,99.90
2022-12-08T10:06:41.232Z,99.90
2022-12-08T10:09:39.601Z,99.90
2022-12-08T10:12:24.506Z,99.90
2022-12-08T10:15:21.471Z,99.90
2022-12-08T10:17:51.163Z,99.90
2022-12-08T10:20:20.405Z,99.90
2022-12-08T10:23:15.745Z,99.90
2022-12-08T10:26:01.967Z,99.90
2022-12-08T10:28:31.284Z,99.90
2022-12-08T10:30:58.269Z,99.90
2022-12-08T10:33:25.781Z,99.90
2022-12-08T10:35:56.224Z,99.90
2022-12-08T10:38:34.495Z,99.90
2022-12-08T10:41:13.850Z,99.90
2022-12-08T10:43:59.766Z,99.80
2022-12-08T10:46:28.718Z,99.50
2022-12-08T10:48:57.023Z,99.20
2022-12-08T10:51:34.255Z,99.10
2022-12-08T10:54:01.270Z,98.40
2022-12-08T10:56:30.675Z,97.40
2022-12-08T10:59:16.535Z,96.60
2022-12-08T11:01:48.224Z,95.70
2022-12-08T11:04:22.713Z,95.20
2022-12-08T11:06:51.212Z,95.00
2022-12-08T11:09:18.032Z,94.80
2022-12-08T11:11:57.139Z,94.20
2022-12-08T11:14:25.894Z,93.80
2022-12-08T11:17:07.546Z,93.60
2022-12-08T11:19:43.890Z,91.90
2022-12-08T11:22:32.945Z,92.90
2022-12-08T11:25:01.389Z,93.10
2022-12-08T11:27:28.617Z,91.50
2022-12-08T11:29:56.014Z,92.20
2022-12-08T11:32:22.834Z,90.40
2022-12-08T11:35:05.457Z,91.50
2022-12-08T11:37:39.121Z,93.60
2022-12-08T11:40:08.437Z,96.20
2022-12-08T11:42:54.158Z,98.50
2022-12-08T11:45:26.971Z,99.90
2022-12-08T11:48:17.530Z,99.90
2022-12-08T11:50:57.214Z,99.90
2022-12-08T11:53:47.261Z,99.90
2022-12-08T11:56:21.964Z,99.90
2022-12-08T11:58:55.698Z,99.90
2022-12-08T12:01:28.062Z,99.90
2022-12-08T12:03:55.001Z,99.90
2022-12-08T12:06:59.067Z,99.90
2022-12-08T12:09:51.794Z,99.90
2022-12-08T12:12:39.518Z,99.90
2022-12-08T12:15:24.990Z,99.90
2022-12-08T12:18:20.167Z,99.90
2022-12-08T12:20:53.586Z,99.90
2022-12-08T12:23:27.458Z,99.90
2022-12-08T12:26:01.240Z,99.90
2022-12-08T12:28:31.473Z,99.90
2022-12-08T12:31:05.250Z,99.90
2022-12-08T12:33:33.051Z,99.90
2022-12-08T12:36:05.706Z,99.90
2022-12-08T12:38:57.793Z,99.90
2022-12-08T12:41:29.112Z,99.90
2022-12-08T12:44:14.207Z,99.90
2022-12-08T12:46:45.969Z,99.90
2022-12-08T12:49:38.524Z,99.90
2022-12-08T12:52:45.918Z,99.90
2022-12-08T12:55:12.820Z,99.90
2022-12-08T12:57:50.668Z,99.90
2022-12-08T13:00:23.486Z,99.90
2022-12-08T13:02:52.170Z,99.90
2022-12-08T13:05:32.123Z,99.90
2022-12-08T13:08:23.022Z,99.90
2022-12-08T13:11:02.170Z,99.90
2022-12-08T13:13:29.469Z,99.90
2022-12-08T13:16:09.968Z,99.90
2022-12-08T13:18:49.232Z,99.90
2022-12-08T13:21:18.650Z,99.90
2022-12-08T13:24:10.347Z,99.90
2022-12-08T13:27:06.994Z,99.90
2022-12-08T13:29:38.932Z,99.90
2022-12-08T13:32:09.698Z,99.90
2022-12-08T13:34:51.213Z,99.90
2022-12-08T13:37:28.588Z,99.90
2022-12-08T13:40:15.343Z,99.90
2022-12-08T13:42:58.889Z,99.90
2022-12-08T13:49:31.995Z,99.90
2022-12-08T13:55:13.625Z,99.90
2022-12-08T13:57:27.363Z,99.90
2022-12-08T13:59:54.440Z,99.90
2022-12-08T14:02:30.643Z,99.90
2022-12-08T14:07:46.652Z,99.90
2022-12-08T14:10:30.376Z,99.90
2022-12-08T14:13:03.845Z,99.90
2022-12-08T14:15:37.800Z,99.90
2022-12-08T14:18:07.376Z,99.90
2022-12-08T14:20:57.805Z,99.90
2022-12-08T14:23:22.458Z,99.90
2022-12-08T14:25:49.389Z,99.90
2022-12-08T14:28:17.110Z,99.90
2022-12-08T14:30:44.406Z,99.90
2022-12-08T14:33:19.254Z,99.90
2022-12-08T14:35:52.120Z,99.90
2022-12-08T14:38:22.183Z,99.90
2022-12-08T14:40:59.156Z,99.90
2022-12-08T14:43:29.784Z,99.90
2022-12-08T14:46:02.392Z,99.90
2022-12-08T14:48:36.327Z,99.90
2022-12-08T14:51:21.601Z,99.90
2022-12-08T14:54:01.610Z,99.90
2022-12-08T14:56:51.811Z,99.90
2022-12-08T14:59:30.518Z,99.90
2022-12-08T15:02:24.449Z,99.90
2022-12-08T15:05:21.572Z,99.90
2022-12-08T15:07:53.316Z,99.90
2022-12-08T15:10:39.975Z,99.90
2022-12-08T15:13:09.816Z,99.90
2022-12-08T15:15:54.848Z,99.90
2022-12-08T15:18:37.687Z,99.90
2022-12-08T15:21:09.921Z,99.90
2022-12-08T15:23:46.052Z,99.90
2022-12-08T15:26:22.148Z,99.90
2022-12-08T15:28:49.261Z,99.90
2022-12-08T15:31:20.430Z,99.90
2022-12-08T15:33:47.439Z,99.90
2022-12-08T15:36:14.304Z,99.90
2022-12-08T15:38:43.563Z,99.90
2022-12-08T15:41:14.944Z,99.90
2022-12-08T15:43:42.371Z,99.90
2022-12-08T15:46:09.517Z,99.90
2022-12-08T15:48:37.788Z,99.90
2022-12-08T15:51:04.632Z,99.90
2022-12-08T15:53:31.513Z,99.90
2022-12-08T15:58:55.324Z,99.90
2022-12-08T16:01:23.876Z,99.90
2022-12-08T16:09:40.043Z,99.90
2022-12-08T16:16:00.782Z,99.90
2022-12-08T16:18:34.511Z,99.90
2022-12-08T16:21:41.783Z,99.90
2022-12-08T16:23:48.870Z,99.90
2022-12-08T16:26:44.078Z,99.90
2022-12-08T16:29:06.064Z,99.90
2022-12-08T16:31:33.453Z,99.90
2022-12-08T16:34:00.541Z,99.90
2022-12-08T16:36:27.382Z,99.90
2022-12-08T16:38:58.083Z,99.90
2022-12-08T16:41:43.494Z,99.90
2022-12-08T16:44:10.492Z,99.90
2022-12-08T16:46:37.455Z,99.90
2022-12-08T16:49:06.301Z,99.90
2022-12-08T16:51:33.191Z,99.90
2022-12-08T16:54:00.252Z,99.90
2022-12-08T16:56:32.670Z,99.90
2022-12-08T16:59:02.231Z,99.90
2022-12-08T17:01:29.425Z,99.90
2022-12-08T17:06:43.201Z,99.90
2022-12-08T17:09:10.023Z,99.90
2022-12-08T17:11:42.621Z,99.90
2022-12-08T17:14:12.676Z,99.90
2022-12-08T17:16:40.040Z,99.90
2022-12-08T17:19:07.214Z,99.90
2022-12-08T17:21:34.095Z,99.90
2022-12-08T17:24:00.977Z,99.90
2022-12-08T17:26:27.813Z,99.90
2022-12-08T17:29:02.101Z,99.90
2022-12-08T17:31:31.311Z,99.90
2022-12-08T17:34:03.385Z,99.90
2022-12-08T17:36:30.360Z,99.90
2022-12-08T17:38:59.939Z,99.90
2022-12-08T17:41:27.711Z,99.90
2022-12-08T17:43:54.779Z,99.90
2022-12-08T17:46:23.321Z,99.90
2022-12-08T17:48:50.512Z,99.90
2022-12-08T17:51:18.198Z,99.90
2022-12-08T17:53:45.250Z,99.90
2022-12-08T17:56:30.379Z,99.90
2022-12-08T17:58:58.989Z,99.90
2022-12-08T18:01:27.663Z,99.90
2022-12-08T18:03:54.666Z,99.90
2022-12-08T18:06:22.342Z,99.90
2022-12-08T18:08:51.022Z,99.90
2022-12-08T18:11:19.458Z,99.90
2022-12-08T18:13:50.889Z,99.90
2022-12-08T18:16:19.751Z,99.90
2022-12-08T18:18:48.763Z,99.90
2022-12-08T18:21:23.042Z,99.90
2022-12-08T18:23:51.004Z,99.90
2022-12-08T18:26:17.989Z,99.90
2022-12-08T18:29:04.004Z,99.90
2022-12-08T18:31:30.903Z,99.90
2022-12-08T18:33:57.775Z,99.90
2022-12-08T18:36:25.991Z,99.90
2022-12-08T18:38:55.282Z,99.90
2022-12-08T18:41:25.838Z,99.90
2022-12-08T18:43:57.154Z,99.90
2022-12-08T18:46:25.527Z,99.90
2022-12-08T18:48:53.907Z,99.90
2022-12-08T18:51:23.803Z,99.90
2022-12-08T18:53:51.514Z,99.90
2022-12-08T18:56:32.893Z,99.90
2022-12-08T18:59:05.938Z,99.90
2022-12-08T19:01:38.912Z,99.90
2022-12-08T19:06:58.559Z,99.90
2022-12-08T19:09:26.894Z,99.90
2022-12-08T19:11:54.123Z,99.90
2022-12-08T19:14:27.864Z,99.90
2022-12-08T19:16:57.664Z,99.90
2022-12-08T19:19:25.329Z,99.90
2022-12-08T19:21:52.750Z,99.90
2022-12-08T19:24:20.269Z,99.90
2022-12-08T19:26:49.448Z,99.90
2022-12-08T19:29:17.068Z,99.90
2022-12-08T19:31:44.545Z,99.90
2022-12-08T19:34:13.440Z,99.90
2022-12-08T19:36:43.102Z,99.90
2022-12-08T19:39:41.125Z,99.90
2022-12-08T19:42:40.237Z,99.90
2022-12-08T19:45:21.212Z,99.90
2022-12-08T19:47:50.551Z,99.90
2022-12-08T19:50:36.373Z,99.90
2022-12-08T19:53:08.704Z,99.90
2022-12-08T19:55:36.564Z,99.90
2022-12-08T19:58:07.624Z,99.90
2022-12-08T20:00:35.554Z,99.90
2022-12-08T20:03:03.858Z,99.90
2022-12-08T20:05:32.381Z,99.90
2022-12-08T20:07:59.408Z,99.90
2022-12-08T20:10:29.876Z,99.90
2022-12-08T20:13:16.034Z,99.90
2022-12-08T20:15:43.283Z,99.90
2022-12-08T20:18:11.312Z,99.90
2022-12-08T20:20:39.356Z,99.90
2022-12-08T20:23:06.413Z,99.90
2022-12-08T20:25:33.797Z,99.90
2022-12-08T20:28:00.759Z,99.90
2022-12-08T20:30:27.642Z,99.90
2022-12-08T20:32:54.479Z,99.90
2022-12-08T20:35:21.358Z,99.90
2022-12-08T20:37:48.542Z,99.90
2022-12-08T20:40:15.882Z,99.90
2022-12-08T20:42:42.875Z,99.90
2022-12-08T20:45:10.366Z,99.90
2022-12-08T20:47:38.675Z,99.90
2022-12-08T20:50:06.943Z,99.90
2022-12-08T20:52:34.804Z,99.90
2022-12-08T20:55:02.038Z,99.90
2022-12-08T20:57:30.887Z,99.90
2022-12-08T20:59:57.861Z,99.90
2022-12-08T21:02:24.959Z,99.90
2022-12-08T21:04:52.009Z,99.90
2022-12-08T21:07:20.242Z,99.90
2022-12-08T21:09:47.362Z,99.90
2022-12-08T21:12:14.517Z,99.90
2022-12-08T21:14:41.822Z,99.90
2022-12-08T21:17:08.814Z,99.90
2022-12-08T21:19:35.959Z,99.90
2022-12-08T21:22:03.073Z,99.90
2022-12-08T21:24:33.990Z,99.90
2022-12-08T21:27:02.981Z,99.90
2022-12-08T21:29:29.902Z,99.90
2022-12-08T21:31:58.768Z,99.90
2022-12-08T21:34:31.493Z,99.90
2022-12-08T21:36:59.133Z,99.90
2022-12-08T21:39:26.758Z,99.90
2022-12-08T21:42:12.164Z,99.90
2022-12-08T21:44:39.317Z,99.90
2022-12-08T21:47:06.991Z,99.90
2022-12-08T21:49:34.327Z,99.90
2022-12-08T21:52:01.276Z,99.90
2022-12-08T21:54:28.401Z,99.90
2022-12-08T21:56:56.490Z,99.90
2022-12-08T21:59:23.634Z,99.90
2022-12-08T22:01:50.784Z,99.90
2022-12-08T22:04:19.489Z,99.90
2022-12-08T22:06:47.096Z,99.90
2022-12-08T22:09:15.254Z,99.90
2022-12-08T22:11:43.570Z,99.90
2022-12-08T22:14:14.383Z,99.90
2022-12-08T22:16:45.398Z,99.90
2022-12-08T22:19:12.666Z,99.90
2022-12-08T22:21:39.645Z,99.90
2022-12-08T22:24:06.873Z,99.90
2022-12-08T22:26:34.097Z,99.90
2022-12-08T22:29:02.184Z,99.90
2022-12-08T22:31:29.248Z,99.90
2022-12-08T22:33:56.431Z,99.90
2022-12-08T22:36:25.521Z,99.90
2022-12-08T22:38:54.892Z,99.90
2022-12-08T22:41:22.224Z,99.90
2022-12-08T22:43:50.251Z,99.90
2022-12-08T22:46:25.774Z,99.90
2022-12-08T22:48:54.192Z,99.90
2022-12-08T22:51:21.261Z,99.90
2022-12-08T22:53:48.944Z,99.90
2022-12-08T22:56:17.236Z,99.90
2022-12-08T22:58:45.563Z,99.90
2022-12-08T23:01:39.555Z,99.90
2022-12-08T23:04:12.659Z,99.90
2022-12-08T23:06:43.107Z,99.90
2022-12-08T23:09:10.055Z,99.90
2022-12-08T23:11:37.109Z,99.90
2022-12-08T23:14:04.108Z,99.90
2022-12-08T23:16:31.396Z,99.90
2022-12-08T23:19:02.724Z,99.90
2022-12-08T23:21:29.712Z,99.90
2022-12-08T23:23:56.812Z,99.90
2022-12-08T23:26:25.780Z,99.90
2022-12-08T23:28:53.598Z,99.90
2022-12-08T23:31:20.996Z,99.90
2022-12-08T23:33:48.204Z,99.90
2022-12-08T23:36:16.786Z,99.90
2022-12-08T23:38:44.274Z,99.90
2022-12-08T23:41:13.091Z,99.90
2022-12-08T23:43:48.855Z,99.90
2022-12-08T23:46:18.012Z,99.90
2022-12-08T23:48:46.521Z,99.90
2022-12-08T23:51:14.026Z,99.90
2022-12-08T23:53:41.240Z,99.90
2022-12-08T23:56:11.655Z,99.90
2022-12-08T23:58:39.034Z,99.90
